createdAt,value
2023-02-20T00:01:54.366Z,86.14
2023-02-20T00:04:27.036Z,85.60
2023-02-20T00:06:59.524Z,85.50
2023-02-20T00:09:32.056Z,85.57
2023-02-20T00:12:04.806Z,85.14
2023-02-20T00:14:37.399Z,84.87
2023-02-20T00:17:09.944Z,85.01
2023-02-20T00:19:42.486Z,84.62
2023-02-20T00:22:14.996Z,84.67
2023-02-20T00:24:47.475Z,84.97
2023-02-20T00:27:20.218Z,84.62
2023-02-20T00:29:52.814Z,85.08
2023-02-20T00:32:25.410Z,85.28
2023-02-20T00:34:57.957Z,86.38
2023-02-20T00:37:30.472Z,85.45
2023-02-20T00:40:03.359Z,85.97
2023-02-20T00:42:35.971Z,86.16
2023-02-20T00:45:10.579Z,86.20
2023-02-20T00:47:43.892Z,85.59
2023-02-20T00:50:17.670Z,86.12
2023-02-20T00:52:50.472Z,85.71
2023-02-20T00:55:23.014Z,85.33
2023-02-20T00:57:55.670Z,86.41
2023-02-20T01:00:30.232Z,85.87
2023-02-20T01:03:02.831Z,85.97
2023-02-20T01:05:35.379Z,86.01
2023-02-20T01:08:07.961Z,86.04
2023-02-20T01:10:40.477Z,86.36
2023-02-20T01:13:13.028Z,86.94
2023-02-20T01:15:45.802Z,86.41
2023-02-20T01:18:19.116Z,86.67
2023-02-20T01:20:52.017Z,86.47
2023-02-20T01:23:25.204Z,86.93
2023-02-20T01:25:57.747Z,86.89
2023-02-20T01:28:30.286Z,86.89
2023-02-20T01:31:02.828Z,87.25
2023-02-20T01:33:35.347Z,87.12
2023-02-20T01:36:09.069Z,87.07
2023-02-20T01:38:42.617Z,87.57
2023-02-20T01:41:15.215Z,88.02
2023-02-20T01:43:48.680Z,87.55
2023-02-20T01:46:27.483Z,87.62
2023-02-20T01:49:16.183Z,87.53
2023-02-20T01:51:57.942Z,88.07
2023-02-20T01:54:32.986Z,87.88
2023-02-20T01:57:13.881Z,88.10
2023-02-20T01:59:50.150Z,88.56
2023-02-20T02:02:24.811Z,88.84
2023-02-20T02:04:57.383Z,88.83
2023-02-20T02:07:30.691Z,89.25
2023-02-20T02:10:08.442Z,89.11
2023-02-20T02:12:47.481Z,88.96
2023-02-20T02:15:24.118Z,89.52
2023-02-20T02:18:31.706Z,89.50
2023-02-20T02:21:20.940Z,89.66
2023-02-20T02:24:12.588Z,89.64
2023-02-20T02:27:30.484Z,90.15
2023-02-20T02:31:00.321Z,90.02
2023-02-20T02:33:55.591Z,89.56
2023-02-20T02:36:50.949Z,89.16
2023-02-20T02:39:50.530Z,89.93
2023-02-20T02:42:35.002Z,90.11
2023-02-20T02:45:27.495Z,90.49
2023-02-20T02:48:37.159Z,90.00
2023-02-20T02:51:25.669Z,90.12
2023-02-20T02:54:11.026Z,90.36
2023-02-20T02:56:47.733Z,89.91
2023-02-20T02:59:32.363Z,90.51
2023-02-20T03:02:13.153Z,90.21
2023-02-20T03:04:51.179Z,90.39
2023-02-20T03:07:26.913Z,89.69
2023-02-20T03:10:11.903Z,89.66
2023-02-20T03:12:50.510Z,90.67
2023-02-20T03:15:40.050Z,90.23
2023-02-20T03:18:20.325Z,90.49
2023-02-20T03:21:01.305Z,90.71
2023-02-20T03:23:42.967Z,89.45
2023-02-20T03:26:26.666Z,90.06
2023-02-20T03:29:10.463Z,89.75
2023-02-20T03:32:16.158Z,89.65
2023-02-20T03:35:11.682Z,89.81
2023-02-20T03:38:07.178Z,89.41
2023-02-20T03:41:00.492Z,89.88
2023-02-20T03:43:36.935Z,89.94
2023-02-20T03:46:19.304Z,89.19
2023-02-20T03:49:21.033Z,89.26
2023-02-20T03:51:54.435Z,88.89
2023-02-20T03:54:30.178Z,88.95
2023-02-20T03:57:39.611Z,89.34
2023-02-20T04:00:22.138Z,89.49
2023-02-20T04:03:03.395Z,89.09
2023-02-20T04:05:43.382Z,89.31
2023-02-20T04:08:35.674Z,89.36
2023-02-20T04:11:21.953Z,89.49
2023-02-20T04:13:56.987Z,89.24
2023-02-20T04:16:32.627Z,89.19
2023-02-20T04:19:05.198Z,89.09
2023-02-20T04:21:51.885Z,88.95
2023-02-20T04:24:40.647Z,88.69
2023-02-20T04:27:13.882Z,88.30
2023-02-20T04:29:46.793Z,88.43
2023-02-20T04:32:19.684Z,87.29
2023-02-20T04:34:52.380Z,88.00
2023-02-20T04:37:24.976Z,88.51
2023-02-20T04:39:57.495Z,87.88
2023-02-20T04:42:30.009Z,88.51
2023-02-20T04:45:02.817Z,87.50
2023-02-20T04:47:35.575Z,88.43
2023-02-20T04:50:08.503Z,88.26
2023-02-20T04:52:41.730Z,87.28
2023-02-20T04:55:14.579Z,86.96
2023-02-20T04:57:48.032Z,86.68
2023-02-20T05:00:22.103Z,86.60
2023-02-20T05:02:57.544Z,87.15
2023-02-20T05:05:30.721Z,86.85
2023-02-20T05:08:06.943Z,86.21
2023-02-20T05:10:39.462Z,86.65
2023-02-20T05:13:12.064Z,86.68
2023-02-20T05:15:44.759Z,86.72
2023-02-20T05:18:29.463Z,86.10
2023-02-20T05:21:20.439Z,85.94
2023-02-20T05:23:52.964Z,86.24
2023-02-20T05:26:25.640Z,86.38
2023-02-20T05:28:58.207Z,86.69
2023-02-20T05:31:30.778Z,85.89
2023-02-20T05:34:03.480Z,86.26
2023-02-20T05:36:36.564Z,85.61
2023-02-20T05:39:09.441Z,85.39
2023-02-20T05:41:41.957Z,85.18
2023-02-20T05:44:14.603Z,85.27
2023-02-20T05:46:47.196Z,85.38
2023-02-20T05:49:20.162Z,84.90
2023-02-20T05:51:55.590Z,85.24
2023-02-20T05:54:29.405Z,84.81
2023-02-20T05:57:02.296Z,85.25
2023-02-20T05:59:34.868Z,84.48
2023-02-20T06:02:07.493Z,84.97
2023-02-20T06:04:40.093Z,84.48
2023-02-20T06:07:12.697Z,84.15
2023-02-20T06:09:45.383Z,84.11
2023-02-20T06:12:17.902Z,84.16
2023-02-20T06:14:50.537Z,83.83
2023-02-20T06:17:23.127Z,82.96
2023-02-20T06:19:55.738Z,83.18
2023-02-20T06:22:28.200Z,83.73
2023-02-20T06:25:00.654Z,82.73
2023-02-20T06:27:33.219Z,83.15
2023-02-20T06:30:06.655Z,82.92
2023-02-20T06:32:39.322Z,83.22
2023-02-20T06:35:11.930Z,83.15
2023-02-20T06:37:44.645Z,82.83
2023-02-20T06:40:17.164Z,82.91
2023-02-20T06:42:49.694Z,82.41
2023-02-20T06:45:22.285Z,82.91
2023-02-20T06:47:54.885Z,82.63
2023-02-20T06:50:27.437Z,82.31
2023-02-20T06:53:00.021Z,82.35
2023-02-20T06:55:34.246Z,82.29
2023-02-20T06:58:07.106Z,81.80
2023-02-20T07:00:39.676Z,81.91
2023-02-20T07:03:12.241Z,81.50
2023-02-20T07:05:45.342Z,81.83
2023-02-20T07:08:17.894Z,81.58
2023-02-20T07:10:50.497Z,81.44
2023-02-20T07:13:23.338Z,81.94
2023-02-20T07:15:56.039Z,81.90
2023-02-20T07:18:28.661Z,81.63
2023-02-20T07:21:01.248Z,81.71
2023-02-20T07:23:33.744Z,81.44
2023-02-20T07:26:06.329Z,80.88
2023-02-20T07:28:39.413Z,81.32
2023-02-20T07:31:12.121Z,81.55
2023-02-20T07:33:44.632Z,81.07
2023-02-20T07:36:17.924Z,81.20
2023-02-20T07:38:56.535Z,80.65
2023-02-20T07:41:37.596Z,81.15
2023-02-20T07:44:10.497Z,80.79
2023-02-20T07:46:43.477Z,81.52
2023-02-20T07:49:15.955Z,81.21
2023-02-20T07:51:48.584Z,81.03
2023-02-20T07:54:21.171Z,80.97
2023-02-20T07:56:55.544Z,80.85
2023-02-20T07:59:28.150Z,80.74
2023-02-20T08:02:00.894Z,80.17
2023-02-20T08:04:33.386Z,80.88
2023-02-20T08:07:08.930Z,80.61
2023-02-20T08:09:41.520Z,80.38
2023-02-20T08:12:17.216Z,80.26
2023-02-20T08:14:51.802Z,80.31
2023-02-20T08:17:29.674Z,80.49
2023-02-20T08:20:09.082Z,80.43
2023-02-20T08:22:42.357Z,80.54
2023-02-20T08:25:16.563Z,80.33
2023-02-20T08:27:49.842Z,80.39
2023-02-20T08:30:28.150Z,79.53
2023-02-20T08:33:02.427Z,79.83
2023-02-20T08:35:36.749Z,79.66
2023-02-20T08:38:40.701Z,80.08
2023-02-20T08:41:14.436Z,79.88
2023-02-20T08:43:47.197Z,79.78
2023-02-20T08:46:19.800Z,79.48
2023-02-20T08:48:52.362Z,78.85
2023-02-20T08:51:26.483Z,79.63
2023-02-20T08:53:59.078Z,79.63
2023-02-20T08:56:31.615Z,78.59
2023-02-20T08:59:04.275Z,78.98
2023-02-20T09:01:37.030Z,79.34
2023-02-20T09:04:11.318Z,79.34
2023-02-20T09:06:44.493Z,78.95
2023-02-20T09:09:17.369Z,79.44
2023-02-20T09:11:50.115Z,78.87
2023-02-20T09:14:22.629Z,80.04
2023-02-20T09:16:55.391Z,79.21
2023-02-20T09:19:28.125Z,79.05
2023-02-20T09:22:02.039Z,78.75
2023-02-20T09:24:35.568Z,78.92
2023-02-20T09:27:10.161Z,78.50
2023-02-20T09:29:44.321Z,79.25
2023-02-20T09:32:17.117Z,79.16
2023-02-20T09:34:49.789Z,79.60
2023-02-20T09:37:22.409Z,79.74
2023-02-20T09:39:55.007Z,79.98
2023-02-20T09:42:53.539Z,80.24
2023-02-20T09:45:30.900Z,79.42
2023-02-20T09:48:36.798Z,78.90
2023-02-20T09:51:22.190Z,79.17
2023-02-20T09:54:22.042Z,79.13
2023-02-20T09:57:01.135Z,79.14
2023-02-20T09:59:41.899Z,79.02
2023-02-20T10:02:31.108Z,79.19
2023-02-20T10:05:19.347Z,79.93
2023-02-20T10:07:53.411Z,79.55
2023-02-20T10:10:30.646Z,78.87
2023-02-20T10:13:57.705Z,78.48
2023-02-20T10:16:56.816Z,79.10
2023-02-20T10:19:40.215Z,79.27
2023-02-20T10:22:42.939Z,79.04
2023-02-20T10:25:25.908Z,78.79
2023-02-20T10:28:22.067Z,78.84
2023-02-20T10:30:54.542Z,78.83
2023-02-20T10:33:38.557Z,79.10
2023-02-20T10:36:52.370Z,78.70
2023-02-20T10:39:26.600Z,78.81
2023-02-20T10:42:12.731Z,78.71
2023-02-20T10:45:07.939Z,79.08
2023-02-20T10:47:53.005Z,79.09
2023-02-20T10:50:47.141Z,78.87
2023-02-20T10:53:38.957Z,78.15
2023-02-20T10:56:24.158Z,78.74
2023-02-20T10:59:35.554Z,79.15
2023-02-20T11:02:21.270Z,79.37
2023-02-20T11:05:02.867Z,78.97
2023-02-20T11:07:35.526Z,79.31
2023-02-20T11:10:08.593Z,80.60
2023-02-20T11:12:51.275Z,79.92
2023-02-20T11:15:28.757Z,80.61
2023-02-20T11:18:01.487Z,80.08
2023-02-20T11:20:38.618Z,80.77
2023-02-20T11:23:11.655Z,80.26
2023-02-20T11:25:44.341Z,80.99
2023-02-20T11:28:26.022Z,80.51
2023-02-20T11:31:06.700Z,80.47
2023-02-20T11:33:49.192Z,80.49
2023-02-20T11:36:27.700Z,81.17
2023-02-20T11:39:05.960Z,81.12
2023-02-20T11:41:39.736Z,81.51
2023-02-20T11:44:13.166Z,80.72
2023-02-20T11:46:47.312Z,80.86
2023-02-20T11:49:28.191Z,81.55
2023-02-20T11:52:22.215Z,81.75
2023-02-20T11:55:22.345Z,81.35
2023-02-20T11:57:55.672Z,81.59
2023-02-20T12:00:46.708Z,81.64
2023-02-20T12:03:30.310Z,81.40
2023-02-20T12:06:36.195Z,81.42
2023-02-20T12:09:19.436Z,80.93
2023-02-20T12:11:57.243Z,81.47
2023-02-20T12:14:29.892Z,81.56
2023-02-20T12:17:25.008Z,81.60
2023-02-20T12:20:18.768Z,80.76
2023-02-20T12:23:17.357Z,80.76
2023-02-20T12:26:20.937Z,80.38
2023-02-20T12:29:19.992Z,80.43
2023-02-20T12:32:30.356Z,80.51
2023-02-20T12:35:31.923Z,80.76
2023-02-20T12:38:29.801Z,80.70
2023-02-20T12:41:41.838Z,80.39
2023-02-20T12:44:39.892Z,80.26
2023-02-20T12:47:34.600Z,79.57
2023-02-20T12:50:47.218Z,79.24
2023-02-20T12:54:19.567Z,79.39
2023-02-20T12:57:14.709Z,79.27
2023-02-20T12:59:59.501Z,78.90
2023-02-20T13:02:48.612Z,79.41
2023-02-20T13:05:27.386Z,79.00
2023-02-20T13:08:31.272Z,78.71
2023-02-20T13:11:24.597Z,78.56
2023-02-20T13:14:11.207Z,79.05
2023-02-20T13:16:55.798Z,78.51
2023-02-20T13:19:45.775Z,78.80
2023-02-20T13:22:18.621Z,77.80
2023-02-20T13:24:51.196Z,78.35
2023-02-20T13:27:33.068Z,77.56
2023-02-20T13:30:23.291Z,76.95
2023-02-20T13:33:23.141Z,78.45
2023-02-20T13:35:59.756Z,77.53
2023-02-20T13:38:33.177Z,78.91
2023-02-20T13:41:09.587Z,78.98
2023-02-20T13:43:42.114Z,78.91
2023-02-20T13:46:20.433Z,78.47
2023-02-20T13:48:54.834Z,78.22
2023-02-20T13:51:29.352Z,78.75
2023-02-20T13:54:24.040Z,78.05
2023-02-20T13:57:03.088Z,78.65
2023-02-20T13:59:38.964Z,78.84
2023-02-20T14:02:29.389Z,78.95
2023-02-20T14:05:06.860Z,78.37
2023-02-20T14:07:46.163Z,78.73
2023-02-20T14:10:35.405Z,78.69
2023-02-20T14:13:15.432Z,78.69
2023-02-20T14:16:00.371Z,79.00
2023-02-20T14:18:36.132Z,79.18
2023-02-20T14:21:18.846Z,79.41
2023-02-20T14:23:53.999Z,79.41
2023-02-20T14:26:34.387Z,79.20
2023-02-20T14:29:22.785Z,79.15
2023-02-20T14:31:59.286Z,78.89
2023-02-20T14:34:56.739Z,79.02
2023-02-20T14:38:11.064Z,79.20
2023-02-20T14:40:46.134Z,78.78
2023-02-20T14:43:24.339Z,78.49
2023-02-20T14:46:21.718Z,78.35
2023-02-20T14:49:17.214Z,78.46
2023-02-20T14:51:49.928Z,78.62
2023-02-20T14:54:30.122Z,78.64
2023-02-20T14:57:04.856Z,79.10
2023-02-20T14:59:40.119Z,78.72
2023-02-20T15:02:33.771Z,78.92
2023-02-20T15:05:13.836Z,78.41
2023-02-20T15:07:47.210Z,78.61
2023-02-20T15:10:43.878Z,78.06
2023-02-20T15:13:22.739Z,79.08
2023-02-20T15:16:28.488Z,78.91
2023-02-20T15:19:01.551Z,79.15
2023-02-20T15:21:41.455Z,78.49
2023-02-20T15:24:32.805Z,78.06
2023-02-20T15:27:16.519Z,78.63
2023-02-20T15:30:09.126Z,78.73
2023-02-20T15:32:51.625Z,79.01
2023-02-20T15:35:27.487Z,77.85
2023-02-20T15:38:05.087Z,79.22
2023-02-20T15:40:37.838Z,79.08
2023-02-20T15:43:37.442Z,78.59
2023-02-20T15:46:07.434Z,78.79
2023-02-20T15:48:40.033Z,78.24
2023-02-20T15:51:20.610Z,78.96
2023-02-20T15:53:56.154Z,79.14
2023-02-20T15:56:34.084Z,78.89
2023-02-20T15:59:11.781Z,77.78
2023-02-20T16:01:45.610Z,78.08
2023-02-20T16:04:18.604Z,78.05
2023-02-20T16:06:51.060Z,77.74
2023-02-20T16:09:23.539Z,78.12
2023-02-20T16:11:56.077Z,77.47
2023-02-20T16:14:28.567Z,78.63
2023-02-20T16:17:01.250Z,78.17
2023-02-20T16:19:42.386Z,78.28
2023-02-20T16:22:15.664Z,78.74
2023-02-20T16:24:48.365Z,79.04
2023-02-20T16:27:25.961Z,79.30
2023-02-20T16:29:58.733Z,79.05
2023-02-20T16:32:31.926Z,78.87
2023-02-20T16:35:04.785Z,78.89
2023-02-20T16:37:37.337Z,78.65
2023-02-20T16:40:10.300Z,78.98
2023-02-20T16:42:42.860Z,79.37
2023-02-20T16:45:20.034Z,78.63
2023-02-20T16:47:56.216Z,79.07
2023-02-20T16:50:30.499Z,79.02
2023-02-20T16:53:03.290Z,78.89
2023-02-20T16:55:37.727Z,78.86
2023-02-20T16:58:10.890Z,78.77
2023-02-20T17:00:56.686Z,78.79
2023-02-20T17:03:32.053Z,78.90
2023-02-20T17:06:04.756Z,78.54
2023-02-20T17:08:37.318Z,78.86
2023-02-20T17:11:09.840Z,78.21
2023-02-20T17:13:42.352Z,78.97
2023-02-20T17:16:25.735Z,79.10
2023-02-20T17:19:03.715Z,78.49
2023-02-20T17:21:36.208Z,78.41
2023-02-20T17:24:08.694Z,79.13
2023-02-20T17:26:41.356Z,79.08
2023-02-20T17:29:13.956Z,79.79
2023-02-20T17:31:46.633Z,79.34
2023-02-20T17:34:19.261Z,78.55
2023-02-20T17:36:51.993Z,79.19
2023-02-20T17:39:24.678Z,79.58
2023-02-20T17:41:57.792Z,79.11
2023-02-20T17:44:31.733Z,79.00
2023-02-20T17:47:05.302Z,79.09
2023-02-20T17:49:40.782Z,78.62
2023-02-20T17:52:14.259Z,78.02
2023-02-20T17:54:49.429Z,78.73
2023-02-20T17:57:23.337Z,78.53
2023-02-20T17:59:56.621Z,78.69
2023-02-20T18:02:29.362Z,78.62
2023-02-20T18:05:02.313Z,78.85
2023-02-20T18:07:34.963Z,79.02
2023-02-20T18:10:07.739Z,79.18
2023-02-20T18:12:42.144Z,79.26
2023-02-20T18:15:19.648Z,78.38
2023-02-20T18:17:52.695Z,79.08
2023-02-20T18:20:26.644Z,78.47
2023-02-20T18:22:59.836Z,79.03
2023-02-20T18:25:41.077Z,78.71
2023-02-20T18:28:13.934Z,78.54
2023-02-20T18:30:46.555Z,79.11
2023-02-20T18:33:19.168Z,78.78
2023-02-20T18:36:07.121Z,79.24
2023-02-20T18:38:43.486Z,79.29
2023-02-20T18:41:16.623Z,79.13
2023-02-20T18:43:49.396Z,79.44
2023-02-20T18:46:28.804Z,80.09
2023-02-20T18:49:02.584Z,80.10
2023-02-20T18:51:39.213Z,79.62
2023-02-20T18:54:22.402Z,79.94
2023-02-20T18:56:56.094Z,79.90
2023-02-20T18:59:30.712Z,79.88
2023-02-20T19:02:05.853Z,80.02
2023-02-20T19:04:38.556Z,79.91
2023-02-20T19:07:11.143Z,79.83
2023-02-20T19:09:43.670Z,79.24
2023-02-20T19:12:16.765Z,80.52
2023-02-20T19:14:49.407Z,80.99
2023-02-20T19:17:22.141Z,80.29
2023-02-20T19:19:54.862Z,80.27
2023-02-20T19:22:32.490Z,80.50
2023-02-20T19:25:05.492Z,80.03
2023-02-20T19:27:38.025Z,80.36
2023-02-20T19:30:11.256Z,80.01
2023-02-20T19:32:44.241Z,80.13
2023-02-20T19:35:17.551Z,80.54
2023-02-20T19:37:50.210Z,80.09
2023-02-20T19:40:22.829Z,80.22
2023-02-20T19:42:56.771Z,80.64
2023-02-20T19:45:29.379Z,80.88
2023-02-20T19:48:02.044Z,80.36
2023-02-20T19:50:35.602Z,80.66
2023-02-20T19:53:08.157Z,79.77
2023-02-20T19:55:40.738Z,80.39
2023-02-20T19:58:13.331Z,80.76
2023-02-20T20:00:46.048Z,80.34
2023-02-20T20:03:18.667Z,79.95
2023-02-20T20:05:51.378Z,80.63
2023-02-20T20:08:23.873Z,81.16
2023-02-20T20:10:56.636Z,80.44
2023-02-20T20:13:29.225Z,80.75
2023-02-20T20:16:01.839Z,80.51
2023-02-20T20:18:34.441Z,80.49
2023-02-20T20:21:07.055Z,80.47
2023-02-20T20:23:39.671Z,81.24
2023-02-20T20:26:12.474Z,81.00
2023-02-20T20:28:45.206Z,81.48
2023-02-20T20:31:28.153Z,81.10
2023-02-20T20:34:00.739Z,81.72
2023-02-20T20:36:34.500Z,81.75
2023-02-20T20:39:07.016Z,81.27
2023-02-20T20:41:44.832Z,81.22
2023-02-20T20:44:20.192Z,81.42
2023-02-20T20:46:52.799Z,82.36
2023-02-20T20:49:25.677Z,81.26
2023-02-20T20:51:58.160Z,82.08
2023-02-20T20:54:30.920Z,82.00
2023-02-20T20:57:03.691Z,81.92
2023-02-20T20:59:37.853Z,81.60
2023-02-20T21:02:10.527Z,82.20
2023-02-20T21:04:45.405Z,81.69
2023-02-20T21:07:19.602Z,82.26
2023-02-20T21:09:52.139Z,81.62
2023-02-20T21:12:24.738Z,81.94
2023-02-20T21:14:57.650Z,81.93
2023-02-20T21:17:30.534Z,82.37
2023-02-20T21:20:07.762Z,82.42
2023-02-20T21:22:40.644Z,82.02
2023-02-20T21:25:13.710Z,82.48
2023-02-20T21:27:50.341Z,81.31
2023-02-20T21:30:26.297Z,82.30
2023-02-20T21:32:59.355Z,81.84
2023-02-20T21:35:31.886Z,82.20
2023-02-20T21:38:04.933Z,82.35
2023-02-20T21:40:37.536Z,82.31
2023-02-20T21:43:29.733Z,81.57
2023-02-20T21:46:02.315Z,82.14
2023-02-20T21:48:35.050Z,82.29
2023-02-20T21:51:07.971Z,82.46
2023-02-20T21:53:40.602Z,83.61
2023-02-20T21:56:13.576Z,82.77
2023-02-20T21:59:01.182Z,82.07
2023-02-20T22:01:37.557Z,82.35
2023-02-20T22:04:13.746Z,82.70
2023-02-20T22:07:06.979Z,82.46
2023-02-20T22:09:58.489Z,82.66
2023-02-20T22:12:51.028Z,82.18
2023-02-20T22:15:42.655Z,82.80
2023-02-20T22:18:34.158Z,83.61
2023-02-20T22:21:25.619Z,83.57
2023-02-20T22:24:20.401Z,83.58
2023-02-20T22:27:13.573Z,83.13
2023-02-20T22:30:05.198Z,84.27
2023-02-20T22:32:56.415Z,83.83
2023-02-20T22:35:48.130Z,84.22
2023-02-20T22:38:39.367Z,83.53
2023-02-20T22:41:37.807Z,83.47
2023-02-20T22:44:29.143Z,83.90
2023-02-20T22:47:20.570Z,83.31
2023-02-20T22:50:11.925Z,83.71
2023-02-20T22:53:03.850Z,84.12
2023-02-20T22:55:55.132Z,84.20
2023-02-20T22:58:46.370Z,84.30
2023-02-20T23:01:38.172Z,83.66
2023-02-20T23:04:29.328Z,84.23
2023-02-20T23:07:20.883Z,84.38
2023-02-20T23:10:12.263Z,83.66
2023-02-20T23:13:03.794Z,84.85
2023-02-20T23:15:55.363Z,85.02
2023-02-20T23:18:46.734Z,85.09
2023-02-20T23:21:38.270Z,84.56
2023-02-20T23:24:29.663Z,84.33
2023-02-20T23:27:21.070Z,84.54
2023-02-20T23:30:12.503Z,84.75
2023-02-20T23:33:04.084Z,85.17
2023-02-20T23:35:55.515Z,84.81
2023-02-20T23:38:46.781Z,83.79
2023-02-20T23:41:38.194Z,84.26
2023-02-20T23:44:31.767Z,83.78
2023-02-20T23:47:23.368Z,84.35
2023-02-20T23:50:14.746Z,85.71
2023-02-20T23:53:06.322Z,84.64
2023-02-20T23:55:57.783Z,85.43
2023-02-20T23:58:50.790Z,84.82
